Station History

Weather Underground - logo

Station Historical Data
 
Daily Summary for April 21, 2018 Units:  English    Metric   Both
« Previous Day
Next Day »
Daily Weekly Monthly Yearly Custom
  Current: High: Low: Average:
Temperature: 61.9 °F TemperatureF °F 47.7 °F 66.8 °F
Dew Point: 53.5 °F DewpointF °F 44.5 °F 49 °F
Humidity: 74 % Humidity % 28 % 58 %
Wind Speed: 0.0 mph WindSpeedMPH mph 0.0 mph 1 mph
Wind Gust: 0.0 mph WindSpeedGustMPH mph - -
Wind:Calm - - West
Pressure: 29.99 in PressureIn in 29.96 in -
Precipitation: 0.00 in      
Historical Graphs
 
 
Tabular Data for April 21, 2018
Time Temperature Dew Point Pressure Wind Wind Speed Wind Gust Humidity Rainfall Rate (Hourly)
TemperatureF °F DewpointF °F PressureIn in Calm     Humidity % HourlyPrecipIn in
00:03 55.2 °F 49.1 °F 30.14 in Calm     80 % 0.00 in
00:08 54.9 °F 49.2 °F 30.14 in Calm     81 % 0.00 in
00:13 54.9 °F 49.2 °F 30.14 in Calm     81 % 0.00 in
00:18 55.0 °F 49.3 °F 30.14 in Calm     81 % 0.00 in
00:23 54.8 °F 49.1 °F 30.14 in Calm     81 % 0.00 in
00:28 54.6 °F 48.9 °F 30.14 in Calm     81 % 0.00 in
00:33 54.5 °F 48.8 °F 30.14 in Calm     81 % 0.00 in
00:38 54.7 °F 48.6 °F 30.14 in Calm     80 % 0.00 in
00:43 54.6 °F 48.6 °F 30.13 in Calm     80 % 0.00 in
00:48 54.4 °F 48.4 °F 30.13 in Calm     80 % 0.00 in
00:53 54.2 °F 48.2 °F 30.13 in Calm   0.1 mph 80 % 0.00 in
00:58 53.8 °F 48.1 °F 30.13 in Calm     81 % 0.00 in
01:03 53.6 °F 48.2 °F 30.13 in Calm     82 % 0.00 in
01:08 53.6 °F 47.6 °F 30.13 in Calm   0.1 mph 80 % 0.00 in
01:13 53.5 °F 47.8 °F 30.13 in Calm     81 % 0.00 in
01:18 53.6 °F 47.9 °F 30.13 in Calm     81 % 0.00 in
01:24 53.8 °F 48.1 °F 30.12 in Calm     81 % 0.00 in
01:29 53.9 °F 47.9 °F 30.13 in Calm     80 % 0.00 in
01:34 53.8 °F 47.8 °F 30.12 in Calm     80 % 0.00 in
01:39 53.5 °F 47.5 °F 30.12 in Calm     80 % 0.00 in
01:44 52.8 °F 47.1 °F 30.12 in Calm     81 % 0.00 in
01:49 52.3 °F 47.0 °F 30.12 in Calm     82 % 0.00 in
01:54 52.0 °F 47.0 °F 30.12 in Calm     83 % 0.00 in
01:59 51.9 °F 47.2 °F 30.12 in Calm     84 % 0.00 in
02:04 51.8 °F 47.1 °F 30.11 in Calm     84 % 0.00 in
02:09 52.0 °F 47.3 °F 30.11 in Calm     84 % 0.00 in
02:14 52.1 °F 47.4 °F 30.11 in Calm     84 % 0.00 in
02:19 51.9 °F 47.2 °F 30.11 in Calm     84 % 0.00 in
02:24 51.7 °F 47.0 °F 30.11 in Calm     84 % 0.00 in
02:29 51.7 °F 47.3 °F 30.11 in Calm     85 % 0.00 in
02:34 51.6 °F 47.2 °F 30.11 in Calm     85 % 0.00 in
02:39 51.4 °F 47.0 °F 30.11 in Calm     85 % 0.00 in
02:44 51.2 °F 47.2 °F 30.11 in Calm     86 % 0.00 in
02:49 51.3 °F 47.3 °F 30.10 in Calm     86 % 0.00 in
02:54 51.5 °F 47.1 °F 30.10 in Calm     85 % 0.00 in
02:55 51.6 °F 47.2 °F 30.10 in Calm     85 % 0.00 in
03:00 51.7 °F 47.3 °F 30.10 in Calm     85 % 0.00 in
03:05 51.8 °F 47.4 °F 30.10 in Calm     85 % 0.00 in
03:10 51.7 °F 47.3 °F 30.10 in Calm     85 % 0.00 in
03:15 51.6 °F 47.2 °F 30.10 in SE 1.2 mph 1.2 mph 85 % 0.00 in
03:20 52.0 °F 47.6 °F 30.10 in Calm     85 % 0.00 in
03:25 52.4 °F 47.7 °F 30.10 in Calm     84 % 0.00 in
03:30 52.4 °F 47.4 °F 30.10 in Calm     83 % 0.00 in
03:35 52.5 °F 47.5 °F 30.10 in Calm     83 % 0.00 in
03:40 52.5 °F 47.2 °F 30.09 in Calm     82 % 0.00 in
03:45 52.2 °F 46.9 °F 30.09 in Calm     82 % 0.00 in
03:51 51.9 °F 46.6 °F 30.09 in SE 1.2 mph   82 % 0.00 in
03:56 51.0 °F 46.0 °F 30.09 in Calm     83 % 0.00 in
04:01 50.3 °F 46.3 °F 30.09 in Calm     86 % 0.00 in
04:06 49.9 °F 45.9 °F 30.09 in Calm     86 % 0.00 in
04:11 49.6 °F 45.9 °F 30.09 in Calm     87 % 0.00 in
04:16 49.7 °F 46.3 °F 30.09 in Calm     88 % 0.00 in
04:21 49.8 °F 46.4 °F 30.09 in Calm     88 % 0.00 in
04:26 49.6 °F 45.9 °F 30.09 in Calm     87 % 0.00 in
04:31 49.3 °F 45.6 °F 30.09 in Calm     87 % 0.00 in
04:36 49.1 °F 45.7 °F 30.09 in Calm     88 % 0.00 in
04:41 49.1 °F 45.7 °F 30.09 in Calm     88 % 0.00 in
04:43 49.1 °F 45.7 °F 30.09 in Calm     88 % 0.00 in
04:48 48.9 °F 45.5 °F 30.09 in SE 1.0 mph   88 % 0.00 in
04:53 49.0 °F 45.9 °F 30.09 in SE 1.2 mph   89 % 0.00 in
04:58 49.4 °F 46.3 °F 30.09 in Calm     89 % 0.00 in
05:03 49.6 °F 45.9 °F 30.09 in Calm     87 % 0.00 in
05:08 49.5 °F 45.8 °F 30.09 in Calm     87 % 0.00 in
05:13 49.3 °F 45.6 °F 30.09 in Calm     87 % 0.00 in
05:18 48.8 °F 45.1 °F 30.09 in Calm     87 % 0.00 in
05:23 48.5 °F 45.1 °F 30.09 in Calm     88 % 0.00 in
05:28 48.1 °F 44.7 °F 30.10 in Calm     88 % 0.00 in
05:33 47.9 °F 44.5 °F 30.10 in Calm     88 % 0.00 in
05:38 47.8 °F 44.7 °F 30.10 in Calm     89 % 0.00 in
05:43 47.8 °F 44.7 °F 30.10 in Calm     89 % 0.00 in
05:48 47.7 °F 44.6 °F 30.10 in Calm     89 % 0.00 in
05:53 47.8 °F 44.7 °F 30.10 in Calm     89 % 0.00 in
05:58 47.8 °F 44.7 °F 30.10 in SE 1.2 mph 1.2 mph 89 % 0.00 in
06:03 47.9 °F 44.8 °F 30.10 in Calm   0.1 mph 89 % 0.00 in
06:08 48.0 °F 44.9 °F 30.10 in Calm     89 % 0.00 in
06:13 48.1 °F 45.0 °F 30.10 in Calm     89 % 0.00 in
06:18 48.0 °F 44.9 °F 30.10 in Calm     89 % 0.00 in
06:23 47.9 °F 44.8 °F 30.10 in Calm     89 % 0.00 in
06:28 48.1 °F 45.0 °F 30.10 in Calm     89 % 0.00 in
06:33 48.1 °F 45.0 °F 30.10 in Calm     89 % 0.00 in
06:38 48.2 °F 45.1 °F 30.10 in Calm     89 % 0.00 in
06:43 48.4 °F 45.3 °F 30.10 in Calm     89 % 0.00 in
06:48 48.6 °F 45.5 °F 30.10 in Calm     89 % 0.00 in
06:54 49.1 °F 46.0 °F 30.10 in Calm     89 % 0.00 in
06:59 49.7 °F 46.3 °F 30.10 in Calm     88 % 0.00 in
07:04 50.0 °F 46.6 °F 30.10 in Calm     88 % 0.00 in
07:09 50.1 °F 46.7 °F 30.11 in Calm     88 % 0.00 in
07:14 50.5 °F 47.1 °F 30.11 in Calm     88 % 0.00 in
07:19 51.0 °F 47.6 °F 30.11 in Calm     88 % 0.00 in
07:24 51.7 °F 47.6 °F 30.11 in Calm     86 % 0.00 in
07:29 52.6 °F 48.2 °F 30.11 in Calm     85 % 0.00 in
07:34 53.6 °F 48.9 °F 30.11 in Calm     84 % 0.00 in
07:37 54.4 °F 49.7 °F 30.11 in Calm     84 % 0.00 in
07:42 56.0 °F 49.9 °F 30.11 in SE 1.2 mph 1.2 mph 80 % 0.00 in
07:47 56.7 °F 50.3 °F 30.11 in Calm     79 % 0.00 in
07:52 58.7 °F 51.2 °F 30.11 in Calm     76 % 0.00 in
07:57 60.2 °F 51.5 °F 30.11 in SE 1.2 mph   73 % 0.00 in
08:02 61.4 °F 51.9 °F 30.11 in Calm     71 % 0.00 in
08:07 61.8 °F 52.3 °F 30.11 in SSE 1.2 mph   71 % 0.00 in
08:12 62.9 °F 52.6 °F 30.11 in Calm     69 % 0.00 in
08:16 63.9 °F 52.3 °F 30.11 in Calm     66 % 0.00 in
08:22 64.9 °F 52.0 °F 30.11 in Calm     63 % 0.00 in
08:27 65.6 °F 52.2 °F 30.11 in Calm     62 % 0.00 in
08:32 66.4 °F 51.2 °F 30.11 in Calm     58 % 0.00 in
08:37 66.9 °F 50.7 °F 30.11 in Calm     56 % 0.00 in
08:42 66.9 °F 49.7 °F 30.11 in Calm     54 % 0.00 in
08:47 66.8 °F 49.6 °F 30.11 in Calm     54 % 0.00 in
08:52 67.1 °F 48.9 °F 30.12 in Calm     52 % 0.00 in
08:57 68.4 °F 49.6 °F 30.12 in Calm     51 % 0.00 in
08:58 68.8 °F 48.9 °F 30.12 in Calm     49 % 0.00 in
09:03 69.3 °F 48.2 °F 30.12 in Calm     47 % 0.00 in
09:08 69.9 °F 47.0 °F 30.11 in Calm     44 % 0.00 in
09:18 71.4 °F 47.7 °F 30.12 in Calm   0.1 mph 43 % 0.00 in
09:23 72.0 °F 46.3 °F 30.12 in ENE 1.2 mph   40 % 0.00 in
09:28 71.9 °F 45.6 °F 30.11 in NW 1.2 mph 1.2 mph 39 % 0.00 in
09:33 72.0 °F 47.0 °F 30.11 in ENE 1.2 mph 1.2 mph 41 % 0.00 in
09:38 72.0 °F 47.0 °F 30.11 in Calm     41 % 0.00 in
09:43 72.2 °F 46.5 °F 30.11 in WNW 1.2 mph 1.2 mph 40 % 0.00 in
09:48 71.8 °F 46.2 °F 30.11 in NW 1.2 mph 1.2 mph 40 % 0.00 in
09:53 72.2 °F 47.8 °F 30.11 in Calm     42 % 0.00 in
09:58 73.3 °F 48.8 °F 30.11 in Calm     42 % 0.00 in
10:03 73.8 °F 48.0 °F 30.11 in WNW 2.3 mph 2.3 mph 40 % 0.00 in
10:08 73.7 °F 47.9 °F 30.11 in NNW 1.2 mph 1.2 mph 40 % 0.00 in
10:13 73.6 °F 47.8 °F 30.11 in WNW 1.2 mph   40 % 0.00 in
10:18 73.5 °F 47.7 °F 30.11 in NNW 1.2 mph 1.2 mph 40 % 0.00 in
10:23 73.5 °F 47.0 °F 30.11 in NW 2.3 mph 2.3 mph 39 % 0.00 in
10:29 73.4 °F 46.2 °F 30.11 in WNW 2.3 mph 2.3 mph 38 % 0.00 in
10:34 73.7 °F 47.2 °F 30.11 in West 1.2 mph 1.2 mph 39 % 0.00 in
10:39 74.1 °F 47.6 °F 30.11 in ESE 2.3 mph 2.3 mph 39 % 0.00 in
10:44 75.2 °F 47.8 °F 30.11 in Calm     38 % 0.00 in
10:49 75.8 °F 48.4 °F 30.11 in WSW 2.3 mph 2.3 mph 38 % 0.00 in
10:54 76.0 °F 47.1 °F 30.11 in NW 1.2 mph 1.2 mph 36 % 0.00 in
10:59 76.6 °F 48.4 °F 30.11 in NNW 2.3 mph 2.3 mph 37 % 0.00 in
11:04 76.1 °F 47.9 °F 30.10 in Calm     37 % 0.00 in
11:09 76.2 °F 47.3 °F 30.10 in NW 2.3 mph 2.3 mph 36 % 0.00 in
11:14 76.4 °F 48.2 °F 30.10 in South 1.2 mph   37 % 0.00 in
11:19 77.1 °F 48.1 °F 30.10 in SE 1.2 mph 1.2 mph 36 % 0.00 in
11:24 77.6 °F 47.0 °F 30.10 in West 2.3 mph 2.3 mph 34 % 0.00 in
11:29 77.7 °F 48.6 °F 30.10 in Calm   0.1 mph 36 % 0.00 in
11:34 78.1 °F 47.4 °F 30.10 in NE 3.5 mph 3.5 mph 34 % 0.00 in
11:39 78.0 °F 48.1 °F 30.10 in NE 1.2 mph 1.2 mph 35 % 0.00 in
11:44 78.1 °F 48.2 °F 30.09 in NNW 3.5 mph 3.5 mph 35 % 0.00 in
11:49 78.2 °F 46.7 °F 30.09 in NNW 3.5 mph 3.5 mph 33 % 0.00 in
11:54 78.0 °F 46.6 °F 30.09 in WNW 3.5 mph 3.5 mph 33 % 0.00 in
11:59 77.6 °F 45.4 °F 30.09 in NW 3.5 mph 3.5 mph 32 % 0.00 in
12:04 77.8 °F 47.2 °F 30.09 in Calm     34 % 0.00 in
12:09 78.4 °F 46.9 °F 30.08 in NW 2.3 mph 2.3 mph 33 % 0.00 in
12:14 78.6 °F 47.1 °F 30.08 in NW 3.5 mph 3.5 mph 33 % 0.00 in
12:19 78.8 °F 45.6 °F 30.08 in WSW 2.3 mph 2.3 mph 31 % 0.00 in
12:24 78.9 °F 49.7 °F 30.08 in NE 2.3 mph 2.3 mph 36 % 0.00 in
12:29 79.0 °F 47.4 °F 30.08 in East 1.2 mph   33 % 0.00 in
12:34 79.7 °F 47.2 °F 30.07 in NW 3.5 mph 3.5 mph 32 % 0.00 in
12:39 80.2 °F 47.7 °F 30.07 in NNW 1.2 mph 1.2 mph 32 % 0.00 in
12:44 81.0 °F 50.0 °F 30.07 in SSE 1.2 mph   34 % 0.00 in
12:50 81.1 °F 47.6 °F 30.06 in WNW 3.5 mph 3.5 mph 31 % 0.00 in
12:55 81.0 °F 47.5 °F 30.06 in NNW 3.5 mph 3.5 mph 31 % 0.00 in
13:00 80.7 °F 46.4 °F 30.06 in NW 4.0 mph 4.0 mph 30 % 0.00 in
13:05 80.6 °F 47.2 °F 30.06 in NW 4.0 mph 4.0 mph 31 % 0.00 in
13:10 80.5 °F 47.1 °F 30.06 in NW 2.3 mph 2.3 mph 31 % 0.00 in
13:15 80.3 °F 46.9 °F 30.06 in West 2.3 mph 2.3 mph 31 % 0.00 in
13:20 80.5 °F 46.2 °F 30.05 in NW 5.8 mph 5.8 mph 30 % 0.00 in
13:25 80.7 °F 48.1 °F 30.05 in SE 1.2 mph   32 % 0.00 in
13:30 81.9 °F 49.1 °F 30.05 in NW 2.3 mph 2.3 mph 32 % 0.00 in
13:35 82.2 °F 47.7 °F 30.05 in WNW 3.5 mph 3.5 mph 30 % 0.00 in
13:40 81.8 °F 47.3 °F 30.04 in NNE 4.6 mph 4.6 mph 30 % 0.00 in
13:45 81.6 °F 47.2 °F 30.04 in NW 3.5 mph 3.5 mph 30 % 0.00 in
13:50 82.0 °F 47.5 °F 30.04 in NW 2.3 mph 2.3 mph 30 % 0.00 in
13:55 81.9 °F 48.3 °F 30.04 in NNW 2.3 mph 2.3 mph 31 % 0.00 in
14:01 81.9 °F 48.3 °F 30.04 in WNW 2.3 mph 2.3 mph 31 % 0.00 in
14:06 82.0 °F 47.5 °F 30.03 in NW 3.5 mph 3.5 mph 30 % 0.00 in
14:11 82.1 °F 50.1 °F 30.03 in North 2.3 mph   33 % 0.00 in
14:16 83.0 °F 49.2 °F 30.03 in NNW 1.2 mph 1.2 mph 31 % 0.00 in
14:21 83.2 °F 49.4 °F 30.03 in NW 2.3 mph 2.3 mph 31 % 0.00 in
14:26 83.1 °F 48.5 °F 30.03 in WNW 4.6 mph 4.6 mph 30 % 0.00 in
14:31 83.0 °F 50.1 °F 30.02 in West 1.2 mph 1.2 mph 32 % 0.00 in
14:36 83.4 °F 49.6 °F 30.02 in WSW 3.5 mph 3.5 mph 31 % 0.00 in
14:41 83.3 °F 48.6 °F 30.02 in NW 2.3 mph 2.3 mph 30 % 0.00 in
14:55 83.4 °F 49.6 °F 30.01 in NW 3.5 mph 3.5 mph 31 % 0.00 in
15:03 83.7 °F 48.1 °F 30.01 in ENE 2.3 mph 2.3 mph 29 % 0.00 in
15:08 84.0 °F 50.1 °F 30.00 in WNW 4.0 mph 4.0 mph 31 % 0.00 in
15:13 83.6 °F 48.9 °F 30.00 in NW 3.5 mph 3.5 mph 30 % 0.00 in
15:18 83.6 °F 48.9 °F 30.00 in NW 2.0 mph 2.0 mph 30 % 0.00 in
15:23 83.8 °F 49.1 °F 30.00 in WNW 2.3 mph 2.3 mph 30 % 0.00 in
15:28 83.9 °F 49.1 °F 30.00 in NW 3.0 mph 3.0 mph 30 % 0.00 in
15:33 84.1 °F 49.3 °F 30.00 in West 1.2 mph 1.2 mph 30 % 0.00 in
15:38 84.0 °F 49.2 °F 29.99 in NNW 3.5 mph 3.5 mph 30 % 0.00 in
15:43 84.1 °F 49.3 °F 29.99 in NW 2.3 mph 2.3 mph 30 % 0.00 in
15:48 84.0 °F 48.3 °F 29.99 in NW 5.8 mph 5.8 mph 29 % 0.00 in
15:53 83.9 °F 49.1 °F 29.99 in NW 2.3 mph 2.3 mph 30 % 0.00 in
15:58 84.0 °F 47.4 °F 29.99 in West 2.3 mph 2.3 mph 28 % 0.00 in
16:04 84.0 °F 48.3 °F 29.99 in WNW 1.2 mph 1.7 mph 29 % 0.00 in
16:09 83.8 °F 47.2 °F 29.98 in NW 3.5 mph 3.5 mph 28 % 0.00 in
16:14 83.7 °F 49.0 °F 29.98 in NW 2.3 mph 2.3 mph 30 % 0.00 in
16:19 84.0 °F 49.2 °F 29.98 in NW 2.3 mph 2.3 mph 30 % 0.00 in
16:24 84.3 °F 48.6 °F 29.98 in NW 3.5 mph 3.5 mph 29 % 0.00 in
16:29 84.2 °F 47.6 °F 29.98 in NW 2.3 mph 2.3 mph 28 % 0.00 in
16:34 83.8 °F 49.1 °F 29.98 in NW 1.2 mph   30 % 0.00 in
16:39 83.7 °F 49.9 °F 29.98 in WNW 2.3 mph 2.3 mph 31 % 0.00 in
16:44 83.6 °F 50.6 °F 29.97 in WNW 3.5 mph 3.5 mph 32 % 0.00 in
16:49 83.5 °F 50.5 °F 29.98 in WNW 3.5 mph 3.5 mph 32 % 0.00 in
16:54 83.6 °F 50.6 °F 29.97 in NW 3.5 mph 3.5 mph 32 % 0.00 in
16:59 83.6 °F 50.6 °F 29.97 in WNW 4.6 mph 4.6 mph 32 % 0.00 in
17:04 83.7 °F 49.9 °F 29.97 in West 3.5 mph 3.5 mph 31 % 0.00 in
17:09 83.7 °F 50.7 °F 29.97 in NNW 3.5 mph 3.5 mph 32 % 0.00 in
17:14 83.8 °F 50.8 °F 29.97 in NW 2.3 mph 2.3 mph 32 % 0.00 in
17:19 83.4 °F 48.7 °F 29.97 in NW 3.5 mph 3.5 mph 30 % 0.00 in
17:24 83.1 °F 49.3 °F 29.97 in WNW 3.5 mph 3.5 mph 31 % 0.00 in
17:29 83.1 °F 49.3 °F 29.96 in WNW 3.5 mph 3.5 mph 31 % 0.00 in
17:34 83.0 °F 49.2 °F 29.96 in NW 3.5 mph 3.5 mph 31 % 0.00 in
17:39 82.9 °F 50.0 °F 29.96 in NW 3.5 mph 3.5 mph 32 % 0.00 in
17:44 82.6 °F 48.9 °F 29.96 in NW 3.5 mph 3.5 mph 31 % 0.00 in
17:49 82.1 °F 50.1 °F 29.96 in WNW 2.3 mph 2.3 mph 33 % 0.00 in
17:54 81.8 °F 49.9 °F 29.96 in NW 3.5 mph 3.5 mph 33 % 0.00 in
17:59 81.5 °F 49.6 °F 29.96 in NW 2.3 mph 2.3 mph 33 % 0.00 in
18:05 81.2 °F 50.2 °F 29.96 in NW 1.2 mph 1.2 mph 34 % 0.00 in
18:10 81.0 °F 50.0 °F 29.96 in NW 2.3 mph 2.3 mph 34 % 0.00 in
18:15 80.8 °F 50.6 °F 29.96 in NE 2.3 mph 2.3 mph 35 % 0.00 in
18:20 80.6 °F 51.2 °F 29.96 in NW 1.2 mph 1.2 mph 36 % 0.00 in
18:25 80.4 °F 51.0 °F 29.96 in NW 2.3 mph 2.3 mph 36 % 0.00 in
18:30 80.1 °F 50.7 °F 29.96 in NW 1.2 mph 1.2 mph 36 % 0.00 in
18:35 79.8 °F 50.5 °F 29.96 in NW 1.2 mph 1.2 mph 36 % 0.00 in
18:40 79.4 °F 50.9 °F 29.96 in NW 2.3 mph 2.3 mph 37 % 0.00 in
18:45 79.2 °F 51.4 °F 29.96 in WNW 1.2 mph 1.2 mph 38 % 0.00 in
18:50 79.0 °F 51.2 °F 29.96 in NW 1.2 mph 1.2 mph 38 % 0.00 in
18:55 78.9 °F 51.1 °F 29.96 in Calm     38 % 0.00 in
19:00 78.7 °F 51.7 °F 29.96 in Calm     39 % 0.00 in
19:05 78.5 °F 52.8 °F 29.96 in Calm     41 % 0.00 in
19:10 78.2 °F 52.6 °F 29.96 in Calm     41 % 0.00 in
19:15 77.9 °F 52.3 °F 29.96 in Calm     41 % 0.00 in
19:20 77.4 °F 52.5 °F 29.96 in Calm     42 % 0.00 in
19:25 76.9 °F 52.7 °F 29.96 in West 1.2 mph   43 % 0.00 in
19:30 76.4 °F 53.5 °F 29.96 in Calm     45 % 0.00 in
19:35 75.7 °F 52.2 °F 29.96 in Calm     44 % 0.00 in
19:40 75.0 °F 52.8 °F 29.96 in Calm     46 % 0.00 in
19:45 74.3 °F 52.2 °F 29.96 in Calm     46 % 0.00 in
19:50 73.8 °F 53.4 °F 29.96 in Calm     49 % 0.00 in
19:56 73.2 °F 53.4 °F 29.96 in Calm     50 % 0.00 in
20:01 72.6 °F 54.5 °F 29.96 in Calm     53 % 0.00 in
20:06 71.9 °F 54.9 °F 29.96 in Calm     55 % 0.00 in
20:11 71.2 °F 54.7 °F 29.96 in Calm     56 % 0.00 in
20:16 70.7 °F 55.7 °F 29.97 in Calm     59 % 0.00 in
20:21 70.2 °F 56.1 °F 29.97 in Calm     61 % 0.00 in
20:26 69.8 °F 55.7 °F 29.97 in Calm     61 % 0.00 in
20:31 69.4 °F 54.9 °F 29.97 in Calm     60 % 0.00 in
20:36 69.0 °F 56.3 °F 29.97 in Calm     64 % 0.00 in
20:41 68.6 °F 55.9 °F 29.97 in Calm     64 % 0.00 in
20:46 68.2 °F 54.2 °F 29.98 in Calm     61 % 0.00 in
20:51 67.9 °F 54.0 °F 29.98 in Calm     61 % 0.00 in
20:56 67.7 °F 54.2 °F 29.98 in Calm     62 % 0.00 in
21:01 67.5 °F 54.5 °F 29.98 in Calm     63 % 0.00 in
21:06 67.2 °F 54.2 °F 29.98 in Calm     63 % 0.00 in
21:11 66.9 °F 54.3 °F 29.98 in Calm     64 % 0.00 in
21:16 66.8 °F 54.7 °F 29.98 in Calm     65 % 0.00 in
21:21 66.5 °F 53.5 °F 29.98 in Calm     63 % 0.00 in
21:26 66.5 °F 53.9 °F 29.99 in Calm     64 % 0.00 in
21:31 66.5 °F 54.8 °F 29.99 in Calm     66 % 0.00 in
21:36 66.2 °F 54.5 °F 29.99 in Calm     66 % 0.00 in
21:41 65.9 °F 54.6 °F 29.99 in Calm     67 % 0.00 in
21:46 65.7 °F 54.8 °F 29.99 in Calm     68 % 0.00 in
21:51 65.6 °F 55.2 °F 29.99 in Calm     69 % 0.00 in
21:56 65.3 °F 55.3 °F 29.99 in Calm     70 % 0.00 in
22:01 65.1 °F 54.7 °F 30.00 in Calm     69 % 0.00 in
22:07 65.0 °F 54.6 °F 30.00 in Calm     69 % 0.00 in
22:12 64.9 °F 53.7 °F 30.00 in Calm     67 % 0.00 in
22:17 64.7 °F 53.9 °F 30.00 in Calm     68 % 0.00 in
22:22 64.5 °F 53.7 °F 30.00 in Calm     68 % 0.00 in
22:27 64.5 °F 53.7 °F 30.00 in Calm     68 % 0.00 in
22:32 64.5 °F 53.3 °F 30.00 in Calm     67 % 0.00 in
22:37 64.7 °F 53.1 °F 30.00 in Calm     66 % 0.00 in
22:42 64.9 °F 52.8 °F 30.00 in Calm     65 % 0.00 in
22:47 65.0 °F 52.9 °F 30.00 in Calm     65 % 0.00 in
22:52 65.0 °F 52.9 °F 30.00 in Calm     65 % 0.00 in
22:57 64.8 °F 53.2 °F 30.00 in Calm     66 % 0.00 in
23:02 64.4 °F 52.8 °F 30.00 in Calm     66 % 0.00 in
23:07 63.9 °F 53.5 °F 30.00 in Calm     69 % 0.00 in
23:12 63.5 °F 53.1 °F 30.00 in Calm     69 % 0.00 in
23:17 63.2 °F 53.3 °F 30.00 in Calm     70 % 0.00 in
23:22 62.9 °F 53.4 °F 30.00 in Calm     71 % 0.00 in
23:27 62.5 °F 53.0 °F 30.00 in Calm     71 % 0.00 in
23:32 62.2 °F 53.8 °F 29.99 in Calm     74 % 0.00 in
23:37 62.0 °F 53.6 °F 30.00 in Calm     74 % 0.00 in
23:42 61.9 °F 53.1 °F 29.99 in Calm     73 % 0.00 in
23:47 61.9 °F 53.5 °F 29.99 in Calm     74 % 0.00 in
Park Place, Exeter, Tulare County, California, USA
Compliments of Weather Underground - 2.75 mb